sensor_id;sensor_type;location;lat;lon;timestamp;temperature;humidity
51811;DHT22;52468;40.116;18.296;2023-07-22T00:01:52;30.50;51.20
51811;DHT22;52468;40.116;18.296;2023-07-22T00:04:20;30.50;51.90
51811;DHT22;52468;40.116;18.296;2023-07-22T00:06:48;30.40;52.20
51811;DHT22;52468;40.116;18.296;2023-07-22T00:09:16;30.40;52.50
51811;DHT22;52468;40.116;18.296;2023-07-22T00:11:44;30.30;53.10
51811;DHT22;52468;40.116;18.296;2023-07-22T00:14:12;30.30;54.00
51811;DHT22;52468;40.116;18.296;2023-07-22T00:16:40;30.20;54.70
51811;DHT22;52468;40.116;18.296;2023-07-22T00:19:08;30.20;55.70
51811;DHT22;52468;40.116;18.296;2023-07-22T00:21:36;30.30;56.30
51811;DHT22;52468;40.116;18.296;2023-07-22T00:24:04;30.30;57.40
51811;DHT22;52468;40.116;18.296;2023-07-22T00:26:32;30.30;58.20
51811;DHT22;52468;40.116;18.296;2023-07-22T00:29:01;30.40;59.20
51811;DHT22;52468;40.116;18.296;2023-07-22T00:31:30;30.30;60.00
51811;DHT22;52468;40.116;18.296;2023-07-22T00:33:58;30.30;60.90
51811;DHT22;52468;40.116;18.296;2023-07-22T00:36:26;30.30;61.10
51811;DHT22;52468;40.116;18.296;2023-07-22T00:38:54;30.30;61.40
51811;DHT22;52468;40.116;18.296;2023-07-22T00:41:21;30.30;61.80
51811;DHT22;52468;40.116;18.296;2023-07-22T00:43:49;30.30;62.10
51811;DHT22;52468;40.116;18.296;2023-07-22T00:46:17;30.20;62.80
51811;DHT22;52468;40.116;18.296;2023-07-22T00:48:46;30.30;62.80
51811;DHT22;52468;40.116;18.296;2023-07-22T00:51:15;30.20;63.20
51811;DHT22;52468;40.116;18.296;2023-07-22T00:53:43;30.20;63.50
51811;DHT22;52468;40.116;18.296;2023-07-22T00:56:11;30.10;63.80
51811;DHT22;52468;40.116;18.296;2023-07-22T00:58:39;30.10;64.10
51811;DHT22;52468;40.116;18.296;2023-07-22T01:01:07;30.10;64.20
51811;DHT22;52468;40.116;18.296;2023-07-22T01:03:35;30.10;64.10
51811;DHT22;52468;40.116;18.296;2023-07-22T01:06:03;30.00;64.30
51811;DHT22;52468;40.116;18.296;2023-07-22T01:08:31;30.00;64.50
51811;DHT22;52468;40.116;18.296;2023-07-22T01:10:59;30.00;64.60
51811;DHT22;52468;40.116;18.296;2023-07-22T01:13:27;30.00;64.70
51811;DHT22;52468;40.116;18.296;2023-07-22T01:15:56;30.00;64.60
51811;DHT22;52468;40.116;18.296;2023-07-22T01:18:24;30.00;64.60
51811;DHT22;52468;40.116;18.296;2023-07-22T01:20:52;30.00;64.60
51811;DHT22;52468;40.116;18.296;2023-07-22T01:23:21;30.00;64.60
51811;DHT22;52468;40.116;18.296;2023-07-22T01:25:50;30.00;64.60
51811;DHT22;52468;40.116;18.296;2023-07-22T01:28:21;30.00;64.60
51811;DHT22;52468;40.116;18.296;2023-07-22T01:30:49;30.00;64.80
51811;DHT22;52468;40.116;18.296;2023-07-22T01:33:17;30.00;64.90
51811;DHT22;52468;40.116;18.296;2023-07-22T01:35:45;29.90;64.90
51811;DHT22;52468;40.116;18.296;2023-07-22T01:38:13;29.90;65.00
51811;DHT22;52468;40.116;18.296;2023-07-22T01:40:41;29.90;65.00
51811;DHT22;52468;40.116;18.296;2023-07-22T01:43:09;29.90;65.10
51811;DHT22;52468;40.116;18.296;2023-07-22T01:45:37;29.90;65.20
51811;DHT22;52468;40.116;18.296;2023-07-22T01:48:06;29.80;65.30
51811;DHT22;52468;40.116;18.296;2023-07-22T01:50:34;29.90;65.50
51811;DHT22;52468;40.116;18.296;2023-07-22T01:53:02;29.80;65.50
51811;DHT22;52468;40.116;18.296;2023-07-22T01:55:32;29.70;65.50
51811;DHT22;52468;40.116;18.296;2023-07-22T01:58:01;29.80;65.70
51811;DHT22;52468;40.116;18.296;2023-07-22T02:00:29;29.70;65.70
51811;DHT22;52468;40.116;18.296;2023-07-22T02:02:57;29.70;65.80
51811;DHT22;52468;40.116;18.296;2023-07-22T02:05:25;29.60;65.90
51811;DHT22;52468;40.116;18.296;2023-07-22T02:07:54;29.60;66.00
51811;DHT22;52468;40.116;18.296;2023-07-22T02:10:22;29.60;66.10
51811;DHT22;52468;40.116;18.296;2023-07-22T02:12:50;29.60;66.10
51811;DHT22;52468;40.116;18.296;2023-07-22T02:15:19;29.60;66.10
51811;DHT22;52468;40.116;18.296;2023-07-22T02:17:47;29.60;66.20
51811;DHT22;52468;40.116;18.296;2023-07-22T02:20:16;29.60;66.20
51811;DHT22;52468;40.116;18.296;2023-07-22T02:22:44;29.60;66.30
51811;DHT22;52468;40.116;18.296;2023-07-22T02:25:12;29.60;66.20
51811;DHT22;52468;40.116;18.296;2023-07-22T02:27:42;29.60;66.20
51811;DHT22;52468;40.116;18.296;2023-07-22T02:30:11;29.60;66.10
51811;DHT22;52468;40.116;18.296;2023-07-22T02:32:40;29.60;66.10
51811;DHT22;52468;40.116;18.296;2023-07-22T02:35:09;29.60;66.30
51811;DHT22;52468;40.116;18.296;2023-07-22T02:37:38;29.60;66.40
51811;DHT22;52468;40.116;18.296;2023-07-22T02:40:06;29.60;66.60
51811;DHT22;52468;40.116;18.296;2023-07-22T02:42:36;29.60;66.60
51811;DHT22;52468;40.116;18.296;2023-07-22T02:45:04;29.50;66.70
51811;DHT22;52468;40.116;18.296;2023-07-22T02:47:33;29.50;66.70
51811;DHT22;52468;40.116;18.296;2023-07-22T02:50:02;29.50;66.70
51811;DHT22;52468;40.116;18.296;2023-07-22T02:52:32;29.40;66.80
51811;DHT22;52468;40.116;18.296;2023-07-22T02:55:15;29.40;66.90
51811;DHT22;52468;40.116;18.296;2023-07-22T02:57:47;29.40;66.80
51811;DHT22;52468;40.116;18.296;2023-07-22T03:00:17;29.40;66.70
51811;DHT22;52468;40.116;18.296;2023-07-22T03:02:52;29.30;66.80
51811;DHT22;52468;40.116;18.296;2023-07-22T03:05:21;29.30;66.70
51811;DHT22;52468;40.116;18.296;2023-07-22T03:07:49;29.30;66.60
51811;DHT22;52468;40.116;18.296;2023-07-22T03:10:17;29.20;66.50
51811;DHT22;52468;40.116;18.296;2023-07-22T03:12:46;29.20;66.40
51811;DHT22;52468;40.116;18.296;2023-07-22T03:15:14;29.20;66.30
51811;DHT22;52468;40.116;18.296;2023-07-22T03:17:42;29.10;66.20
51811;DHT22;52468;40.116;18.296;2023-07-22T03:20:11;29.10;66.10
51811;DHT22;52468;40.116;18.296;2023-07-22T03:22:44;29.10;65.90
51811;DHT22;52468;40.116;18.296;2023-07-22T03:25:14;29.10;65.70
51811;DHT22;52468;40.116;18.296;2023-07-22T03:27:45;29.20;65.50
51811;DHT22;52468;40.116;18.296;2023-07-22T03:30:16;29.20;65.40
51811;DHT22;52468;40.116;18.296;2023-07-22T03:32:45;29.20;65.20
51811;DHT22;52468;40.116;18.296;2023-07-22T03:35:15;29.20;65.00
51811;DHT22;52468;40.116;18.296;2023-07-22T03:37:43;29.10;65.10
51811;DHT22;52468;40.116;18.296;2023-07-22T03:40:11;29.10;65.00
51811;DHT22;52468;40.116;18.296;2023-07-22T03:42:42;29.10;65.20
51811;DHT22;52468;40.116;18.296;2023-07-22T03:45:10;29.10;65.40
51811;DHT22;52468;40.116;18.296;2023-07-22T03:47:39;29.10;65.80
51811;DHT22;52468;40.116;18.296;2023-07-22T03:50:08;29.10;66.10
51811;DHT22;52468;40.116;18.296;2023-07-22T03:52:36;29.10;66.50
51811;DHT22;52468;40.116;18.296;2023-07-22T03:55:05;29.10;66.90
51811;DHT22;52468;40.116;18.296;2023-07-22T03:57:33;29.10;67.70
51811;DHT22;52468;40.116;18.296;2023-07-22T04:00:03;29.20;68.20
51811;DHT22;52468;40.116;18.296;2023-07-22T04:02:40;29.20;68.90
51811;DHT22;52468;40.116;18.296;2023-07-22T04:05:09;29.30;69.50
51811;DHT22;52468;40.116;18.296;2023-07-22T04:07:37;29.50;69.90
51811;DHT22;52468;40.116;18.296;2023-07-22T04:10:06;29.50;70.30
51811;DHT22;52468;40.116;18.296;2023-07-22T04:12:34;29.70;70.50
51811;DHT22;52468;40.116;18.296;2023-07-22T04:15:02;29.80;70.90
51811;DHT22;52468;40.116;18.296;2023-07-22T04:17:32;29.90;71.20
51811;DHT22;52468;40.116;18.296;2023-07-22T04:20:00;30.00;71.30
51811;DHT22;52468;40.116;18.296;2023-07-22T04:22:29;30.10;71.60
51811;DHT22;52468;40.116;18.296;2023-07-22T04:24:59;30.20;72.00
51811;DHT22;52468;40.116;18.296;2023-07-22T04:27:28;30.30;72.30
51811;DHT22;52468;40.116;18.296;2023-07-22T04:29:56;30.50;72.30
51811;DHT22;52468;40.116;18.296;2023-07-22T04:32:24;30.70;72.00
51811;DHT22;52468;40.116;18.296;2023-07-22T04:34:52;30.90;71.60
51811;DHT22;52468;40.116;18.296;2023-07-22T04:37:20;31.00;71.30
51811;DHT22;52468;40.116;18.296;2023-07-22T04:39:49;31.10;71.20
51811;DHT22;52468;40.116;18.296;2023-07-22T04:42:17;31.10;71.20
51811;DHT22;52468;40.116;18.296;2023-07-22T04:44:45;31.20;71.10
51811;DHT22;52468;40.116;18.296;2023-07-22T04:47:13;31.40;70.70
51811;DHT22;52468;40.116;18.296;2023-07-22T04:49:41;31.60;70.10
51811;DHT22;52468;40.116;18.296;2023-07-22T04:52:09;31.80;69.50
51811;DHT22;52468;40.116;18.296;2023-07-22T04:54:37;32.00;69.00
51811;DHT22;52468;40.116;18.296;2023-07-22T04:57:05;32.10;68.50
51811;DHT22;52468;40.116;18.296;2023-07-22T04:59:34;32.30;68.00
51811;DHT22;52468;40.116;18.296;2023-07-22T05:02:01;32.40;67.60
51811;DHT22;52468;40.116;18.296;2023-07-22T05:04:30;32.30;67.50
51811;DHT22;52468;40.116;18.296;2023-07-22T05:06:57;32.40;67.50
51811;DHT22;52468;40.116;18.296;2023-07-22T05:09:25;32.50;67.40
51811;DHT22;52468;40.116;18.296;2023-07-22T05:11:53;32.60;67.20
51811;DHT22;52468;40.116;18.296;2023-07-22T05:14:21;32.80;66.70
51811;DHT22;52468;40.116;18.296;2023-07-22T05:16:49;33.00;66.20
51811;DHT22;52468;40.116;18.296;2023-07-22T05:19:17;33.00;65.80
51811;DHT22;52468;40.116;18.296;2023-07-22T05:21:46;33.10;65.60
51811;DHT22;52468;40.116;18.296;2023-07-22T05:24:14;33.20;65.40
51811;DHT22;52468;40.116;18.296;2023-07-22T05:26:42;33.30;64.90
51811;DHT22;52468;40.116;18.296;2023-07-22T05:29:12;33.50;64.50
51811;DHT22;52468;40.116;18.296;2023-07-22T05:31:41;33.50;63.80
51811;DHT22;52468;40.116;18.296;2023-07-22T05:34:09;33.60;63.90
51811;DHT22;52468;40.116;18.296;2023-07-22T05:36:36;33.70;63.30
51811;DHT22;52468;40.116;18.296;2023-07-22T05:39:04;33.50;63.40
51811;DHT22;52468;40.116;18.296;2023-07-22T05:41:33;33.50;63.80
51811;DHT22;52468;40.116;18.296;2023-07-22T05:44:01;33.60;63.50
51811;DHT22;52468;40.116;18.296;2023-07-22T05:46:29;33.90;62.90
51811;DHT22;52468;40.116;18.296;2023-07-22T05:48:57;34.00;62.30
51811;DHT22;52468;40.116;18.296;2023-07-22T05:51:26;34.20;61.60
51811;DHT22;52468;40.116;18.296;2023-07-22T05:53:54;34.40;61.20
51811;DHT22;52468;40.116;18.296;2023-07-22T05:56:22;34.60;60.40
51811;DHT22;52468;40.116;18.296;2023-07-22T05:58:50;34.90;59.70
51811;DHT22;52468;40.116;18.296;2023-07-22T06:01:18;35.00;59.10
51811;DHT22;52468;40.116;18.296;2023-07-22T06:03:46;35.10;58.50
51811;DHT22;52468;40.116;18.296;2023-07-22T06:06:14;35.20;57.90
51811;DHT22;52468;40.116;18.296;2023-07-22T06:08:42;35.40;57.50
51811;DHT22;52468;40.116;18.296;2023-07-22T06:11:10;35.50;56.90
51811;DHT22;52468;40.116;18.296;2023-07-22T06:13:38;35.60;56.50
51811;DHT22;52468;40.116;18.296;2023-07-22T06:16:06;35.80;56.30
51811;DHT22;52468;40.116;18.296;2023-07-22T06:18:34;35.90;56.10
51811;DHT22;52468;40.116;18.296;2023-07-22T06:21:02;36.10;55.40
51811;DHT22;52468;40.116;18.296;2023-07-22T06:23:30;36.20;55.00
51811;DHT22;52468;40.116;18.296;2023-07-22T06:25:58;36.40;54.20
51811;DHT22;52468;40.116;18.296;2023-07-22T06:28:26;36.50;54.00
51811;DHT22;52468;40.116;18.296;2023-07-22T06:30:54;36.50;53.70
51811;DHT22;52468;40.116;18.296;2023-07-22T06:33:22;36.50;53.80
51811;DHT22;52468;40.116;18.296;2023-07-22T06:35:50;36.60;53.40
51811;DHT22;52468;40.116;18.296;2023-07-22T06:38:18;36.70;53.40
51811;DHT22;52468;40.116;18.296;2023-07-22T06:40:46;36.90;53.10
51811;DHT22;52468;40.116;18.296;2023-07-22T06:43:14;37.00;52.30
51811;DHT22;52468;40.116;18.296;2023-07-22T06:45:42;37.10;51.50
51811;DHT22;52468;40.116;18.296;2023-07-22T06:48:10;37.20;51.60
51811;DHT22;52468;40.116;18.296;2023-07-22T06:50:38;37.40;51.40
51811;DHT22;52468;40.116;18.296;2023-07-22T06:53:06;37.40;50.80
51811;DHT22;52468;40.116;18.296;2023-07-22T06:55:34;37.50;49.80
51811;DHT22;52468;40.116;18.296;2023-07-22T06:58:02;37.50;49.50
51811;DHT22;52468;40.116;18.296;2023-07-22T07:00:30;37.70;48.90
51811;DHT22;52468;40.116;18.296;2023-07-22T07:02:58;37.80;49.20
51811;DHT22;52468;40.116;18.296;2023-07-22T07:05:26;37.90;49.30
51811;DHT22;52468;40.116;18.296;2023-07-22T07:07:55;38.00;48.80
51811;DHT22;52468;40.116;18.296;2023-07-22T07:10:23;38.00;48.70
51811;DHT22;52468;40.116;18.296;2023-07-22T07:12:51;38.00;48.20
51811;DHT22;52468;40.116;18.296;2023-07-22T07:15:19;38.10;47.90
51811;DHT22;52468;40.116;18.296;2023-07-22T07:17:47;38.20;47.80
51811;DHT22;52468;40.116;18.296;2023-07-22T07:20:15;38.20;47.60
51811;DHT22;52468;40.116;18.296;2023-07-22T07:22:43;38.30;47.60
51811;DHT22;52468;40.116;18.296;2023-07-22T07:25:11;38.50;47.40
51811;DHT22;52468;40.116;18.296;2023-07-22T07:27:39;38.50;47.10
51811;DHT22;52468;40.116;18.296;2023-07-22T07:30:08;38.70;46.50
51811;DHT22;52468;40.116;18.296;2023-07-22T07:32:36;38.90;45.90
51811;DHT22;52468;40.116;18.296;2023-07-22T07:35:04;39.00;45.80
51811;DHT22;52468;40.116;18.296;2023-07-22T07:37:32;39.10;45.70
51811;DHT22;52468;40.116;18.296;2023-07-22T07:40:01;39.10;46.00
51811;DHT22;52468;40.116;18.296;2023-07-22T07:42:29;39.40;45.60
51811;DHT22;52468;40.116;18.296;2023-07-22T07:44:57;39.70;44.50
51811;DHT22;52468;40.116;18.296;2023-07-22T07:47:25;39.90;43.70
51811;DHT22;52468;40.116;18.296;2023-07-22T07:49:53;39.90;43.20
51811;DHT22;52468;40.116;18.296;2023-07-22T07:52:21;40.10;42.80
51811;DHT22;52468;40.116;18.296;2023-07-22T07:54:49;40.40;42.30
51811;DHT22;52468;40.116;18.296;2023-07-22T07:57:17;40.60;40.30
51811;DHT22;52468;40.116;18.296;2023-07-22T07:59:45;40.90;38.40
51811;DHT22;52468;40.116;18.296;2023-07-22T08:02:13;41.00;29.60
51811;DHT22;52468;40.116;18.296;2023-07-22T08:04:41;41.10;30.30
51811;DHT22;52468;40.116;18.296;2023-07-22T08:07:09;41.30;28.20
51811;DHT22;52468;40.116;18.296;2023-07-22T08:09:37;41.50;26.50
51811;DHT22;52468;40.116;18.296;2023-07-22T08:12:06;41.60;24.90
51811;DHT22;52468;40.116;18.296;2023-07-22T08:14:34;41.70;24.30
51811;DHT22;52468;40.116;18.296;2023-07-22T08:17:02;41.60;24.50
51811;DHT22;52468;40.116;18.296;2023-07-22T08:19:31;41.80;23.60
51811;DHT22;52468;40.116;18.296;2023-07-22T08:21:59;41.80;23.90
51811;DHT22;52468;40.116;18.296;2023-07-22T08:24:27;41.90;23.60
51811;DHT22;52468;40.116;18.296;2023-07-22T08:26:55;42.00;23.20
51811;DHT22;52468;40.116;18.296;2023-07-22T08:29:23;42.00;23.00
51811;DHT22;52468;40.116;18.296;2023-07-22T08:31:51;42.00;22.90
51811;DHT22;52468;40.116;18.296;2023-07-22T08:34:19;42.10;22.40
51811;DHT22;52468;40.116;18.296;2023-07-22T08:36:46;42.20;22.50
51811;DHT22;52468;40.116;18.296;2023-07-22T08:39:14;42.40;22.70
51811;DHT22;52468;40.116;18.296;2023-07-22T08:41:49;42.50;22.50
51811;DHT22;52468;40.116;18.296;2023-07-22T08:44:19;42.60;22.50
51811;DHT22;52468;40.116;18.296;2023-07-22T08:46:49;43.00;21.90
51811;DHT22;52468;40.116;18.296;2023-07-22T08:49:19;43.10;20.60
51811;DHT22;52468;40.116;18.296;2023-07-22T08:51:47;43.10;18.80
51811;DHT22;52468;40.116;18.296;2023-07-22T08:54:16;43.00;19.00
51811;DHT22;52468;40.116;18.296;2023-07-22T08:56:44;43.00;18.80
51811;DHT22;52468;40.116;18.296;2023-07-22T08:59:13;43.00;18.60
51811;DHT22;52468;40.116;18.296;2023-07-22T09:01:42;42.90;18.60
51811;DHT22;52468;40.116;18.296;2023-07-22T09:04:10;42.70;18.50
51811;DHT22;52468;40.116;18.296;2023-07-22T09:06:39;42.90;18.80
51811;DHT22;52468;40.116;18.296;2023-07-22T09:09:10;42.90;19.00
51811;DHT22;52468;40.116;18.296;2023-07-22T09:11:39;42.80;18.80
51811;DHT22;52468;40.116;18.296;2023-07-22T09:14:08;42.80;18.70
51811;DHT22;52468;40.116;18.296;2023-07-22T09:16:36;42.50;18.50
51811;DHT22;52468;40.116;18.296;2023-07-22T09:19:04;42.70;18.50
51811;DHT22;52468;40.116;18.296;2023-07-22T09:21:33;42.80;18.40
51811;DHT22;52468;40.116;18.296;2023-07-22T09:24:29;43.10;18.30
51811;DHT22;52468;40.116;18.296;2023-07-22T09:26:58;43.30;17.70
51811;DHT22;52468;40.116;18.296;2023-07-22T09:29:34;43.40;17.30
51811;DHT22;52468;40.116;18.296;2023-07-22T09:32:02;43.50;17.40
51811;DHT22;52468;40.116;18.296;2023-07-22T09:34:30;43.50;17.30
51811;DHT22;52468;40.116;18.296;2023-07-22T09:36:59;43.50;17.50
51811;DHT22;52468;40.116;18.296;2023-07-22T09:39:35;43.60;17.40
51811;DHT22;52468;40.116;18.296;2023-07-22T09:42:03;43.80;17.20
51811;DHT22;52468;40.116;18.296;2023-07-22T09:44:31;43.90;16.80
51811;DHT22;52468;40.116;18.296;2023-07-22T09:47:07;44.00;16.80
51811;DHT22;52468;40.116;18.296;2023-07-22T09:49:40;43.90;16.80
51811;DHT22;52468;40.116;18.296;2023-07-22T09:52:10;44.00;16.90
51811;DHT22;52468;40.116;18.296;2023-07-22T09:54:47;44.00;16.70
51811;DHT22;52468;40.116;18.296;2023-07-22T09:57:16;43.70;16.40
51811;DHT22;52468;40.116;18.296;2023-07-22T09:59:45;43.60;16.40
51811;DHT22;52468;40.116;18.296;2023-07-22T10:02:14;43.70;16.70
51811;DHT22;52468;40.116;18.296;2023-07-22T10:04:45;43.80;16.80
51811;DHT22;52468;40.116;18.296;2023-07-22T10:07:14;44.10;16.30
51811;DHT22;52468;40.116;18.296;2023-07-22T10:09:42;44.30;15.90
51811;DHT22;52468;40.116;18.296;2023-07-22T10:12:10;44.50;15.80
51811;DHT22;52468;40.116;18.296;2023-07-22T10:14:39;44.50;16.20
51811;DHT22;52468;40.116;18.296;2023-07-22T10:17:07;44.70;15.90
51811;DHT22;52468;40.116;18.296;2023-07-22T10:19:36;45.00;15.80
51811;DHT22;52468;40.116;18.296;2023-07-22T10:22:05;45.20;15.80
51811;DHT22;52468;40.116;18.296;2023-07-22T10:24:34;45.60;15.50
51811;DHT22;52468;40.116;18.296;2023-07-22T10:27:02;46.00;14.90
51811;DHT22;52468;40.116;18.296;2023-07-22T10:29:31;46.10;14.60
51811;DHT22;52468;40.116;18.296;2023-07-22T10:32:00;46.20;14.50
51811;DHT22;52468;40.116;18.296;2023-07-22T10:34:27;46.20;14.60
51811;DHT22;52468;40.116;18.296;2023-07-22T10:36:58;46.50;14.60
51811;DHT22;52468;40.116;18.296;2023-07-22T10:39:28;46.50;14.60
51811;DHT22;52468;40.116;18.296;2023-07-22T10:42:05;46.60;14.20
51811;DHT22;52468;40.116;18.296;2023-07-22T10:44:36;46.80;13.70
51811;DHT22;52468;40.116;18.296;2023-07-22T10:47:07;46.70;14.00
51811;DHT22;52468;40.116;18.296;2023-07-22T10:49:46;46.80;14.10
51811;DHT22;52468;40.116;18.296;2023-07-22T10:52:14;46.90;14.20
51811;DHT22;52468;40.116;18.296;2023-07-22T10:55:02;47.00;18.30
51811;DHT22;52468;40.116;18.296;2023-07-22T10:57:30;47.10;22.80
51811;DHT22;52468;40.116;18.296;2023-07-22T10:59:58;47.00;25.90
51811;DHT22;52468;40.116;18.296;2023-07-22T11:02:28;46.70;26.90
51811;DHT22;52468;40.116;18.296;2023-07-22T11:04:58;46.30;27.70
51811;DHT22;52468;40.116;18.296;2023-07-22T11:07:35;46.10;28.20
51811;DHT22;52468;40.116;18.296;2023-07-22T11:10:17;46.10;28.20
51811;DHT22;52468;40.116;18.296;2023-07-22T11:12:46;46.30;28.70
51811;DHT22;52468;40.116;18.296;2023-07-22T11:15:16;46.10;29.50
51811;DHT22;52468;40.116;18.296;2023-07-22T11:17:45;46.00;29.90
51811;DHT22;52468;40.116;18.296;2023-07-22T11:20:13;46.10;27.10
51811;DHT22;52468;40.116;18.296;2023-07-22T11:22:41;46.40;26.10
51811;DHT22;52468;40.116;18.296;2023-07-22T11:25:09;46.40;24.40
51811;DHT22;52468;40.116;18.296;2023-07-22T11:27:37;46.00;20.90
51811;DHT22;52468;40.116;18.296;2023-07-22T11:30:05;46.00;17.40
51811;DHT22;52468;40.116;18.296;2023-07-22T11:32:34;45.50;16.90
51811;DHT22;52468;40.116;18.296;2023-07-22T11:35:02;45.90;16.40
51811;DHT22;52468;40.116;18.296;2023-07-22T11:37:30;46.10;16.30
51811;DHT22;52468;40.116;18.296;2023-07-22T11:40:01;46.40;16.00
51811;DHT22;52468;40.116;18.296;2023-07-22T11:42:30;46.30;15.70
51811;DHT22;52468;40.116;18.296;2023-07-22T11:44:58;46.10;16.00
51811;DHT22;52468;40.116;18.296;2023-07-22T11:47:29;46.30;15.50
51811;DHT22;52468;40.116;18.296;2023-07-22T11:49:59;46.30;15.60
51811;DHT22;52468;40.116;18.296;2023-07-22T11:52:28;46.70;15.40
51811;DHT22;52468;40.116;18.296;2023-07-22T11:55:01;46.60;15.40
51811;DHT22;52468;40.116;18.296;2023-07-22T11:57:29;46.70;15.70
51811;DHT22;52468;40.116;18.296;2023-07-22T11:59:57;46.80;15.60
51811;DHT22;52468;40.116;18.296;2023-07-22T12:02:27;46.50;15.10
51811;DHT22;52468;40.116;18.296;2023-07-22T12:05:03;46.50;15.40
51811;DHT22;52468;40.116;18.296;2023-07-22T12:07:35;46.80;14.90
51811;DHT22;52468;40.116;18.296;2023-07-22T12:10:05;46.80;15.00
51811;DHT22;52468;40.116;18.296;2023-07-22T12:12:38;46.90;15.20
51811;DHT22;52468;40.116;18.296;2023-07-22T12:15:13;47.10;14.80
51811;DHT22;52468;40.116;18.296;2023-07-22T12:17:56;47.10;14.90
51811;DHT22;52468;40.116;18.296;2023-07-22T12:20:32;47.50;15.10
51811;DHT22;52468;40.116;18.296;2023-07-22T12:23:01;47.50;14.90
51811;DHT22;52468;40.116;18.296;2023-07-22T12:25:28;47.30;14.80
51811;DHT22;52468;40.116;18.296;2023-07-22T12:27:57;47.00;15.10
51811;DHT22;52468;40.116;18.296;2023-07-22T12:30:25;47.20;14.50
51811;DHT22;52468;40.116;18.296;2023-07-22T12:32:54;47.40;14.00
51811;DHT22;52468;40.116;18.296;2023-07-22T12:35:22;47.50;14.30
51811;DHT22;52468;40.116;18.296;2023-07-22T12:37:50;47.40;15.10
51811;DHT22;52468;40.116;18.296;2023-07-22T12:40:19;47.50;15.20
51811;DHT22;52468;40.116;18.296;2023-07-22T12:42:48;47.90;14.80
51811;DHT22;52468;40.116;18.296;2023-07-22T12:45:16;48.50;14.50
51811;DHT22;52468;40.116;18.296;2023-07-22T12:47:44;48.80;14.50
51811;DHT22;52468;40.116;18.296;2023-07-22T12:50:12;49.20;14.40
51811;DHT22;52468;40.116;18.296;2023-07-22T12:52:40;49.50;14.50
51811;DHT22;52468;40.116;18.296;2023-07-22T12:55:08;49.50;13.80
51811;DHT22;52468;40.116;18.296;2023-07-22T12:57:36;49.80;13.60
51811;DHT22;52468;40.116;18.296;2023-07-22T13:00:04;50.40;12.90
51811;DHT22;52468;40.116;18.296;2023-07-22T13:02:37;51.00;13.10
51811;DHT22;52468;40.116;18.296;2023-07-22T13:05:05;51.50;12.90
51811;DHT22;52468;40.116;18.296;2023-07-22T13:07:33;52.30;12.60
51811;DHT22;52468;40.116;18.296;2023-07-22T13:10:02;53.50;12.10
51811;DHT22;52468;40.116;18.296;2023-07-22T13:12:34;54.30;11.80
51811;DHT22;52468;40.116;18.296;2023-07-22T13:15:03;55.20;11.90
51811;DHT22;52468;40.116;18.296;2023-07-22T13:17:31;55.50;11.60
51811;DHT22;52468;40.116;18.296;2023-07-22T13:19:59;55.90;11.50
51811;DHT22;52468;40.116;18.296;2023-07-22T13:22:27;56.00;11.20
51811;DHT22;52468;40.116;18.296;2023-07-22T13:24:55;55.90;11.10
51811;DHT22;52468;40.116;18.296;2023-07-22T13:27:23;55.90;11.20
51811;DHT22;52468;40.116;18.296;2023-07-22T13:29:50;55.80;10.70
51811;DHT22;52468;40.116;18.296;2023-07-22T13:32:18;55.40;11.10
51811;DHT22;52468;40.116;18.296;2023-07-22T13:34:46;55.60;11.40
51811;DHT22;52468;40.116;18.296;2023-07-22T13:37:14;56.10;11.00
51811;DHT22;52468;40.116;18.296;2023-07-22T13:39:42;56.00;11.00
51811;DHT22;52468;40.116;18.296;2023-07-22T13:42:10;55.90;11.20
51811;DHT22;52468;40.116;18.296;2023-07-22T13:44:38;56.40;11.00
51811;DHT22;52468;40.116;18.296;2023-07-22T13:47:06;56.80;10.90
51811;DHT22;52468;40.116;18.296;2023-07-22T13:49:34;56.90;10.90
51811;DHT22;52468;40.116;18.296;2023-07-22T13:52:02;57.40;10.80
51811;DHT22;52468;40.116;18.296;2023-07-22T13:54:30;57.40;10.60
51811;DHT22;52468;40.116;18.296;2023-07-22T13:56:58;57.40;10.50
51811;DHT22;52468;40.116;18.296;2023-07-22T13:59:25;57.00;10.50
51811;DHT22;52468;40.116;18.296;2023-07-22T14:01:53;56.70;10.70
51811;DHT22;52468;40.116;18.296;2023-07-22T14:04:21;56.60;10.90
51811;DHT22;52468;40.116;18.296;2023-07-22T14:06:49;56.50;10.70
51811;DHT22;52468;40.116;18.296;2023-07-22T14:09:17;56.50;10.60
51811;DHT22;52468;40.116;18.296;2023-07-22T14:11:45;56.50;10.80
51811;DHT22;52468;40.116;18.296;2023-07-22T14:14:13;56.70;10.70
51811;DHT22;52468;40.116;18.296;2023-07-22T14:16:41;56.80;10.70
51811;DHT22;52468;40.116;18.296;2023-07-22T14:19:08;56.80;10.90
51811;DHT22;52468;40.116;18.296;2023-07-22T14:21:36;56.70;10.90
51811;DHT22;52468;40.116;18.296;2023-07-22T14:24:04;56.50;11.10
51811;DHT22;52468;40.116;18.296;2023-07-22T14:26:32;56.70;11.10
51811;DHT22;52468;40.116;18.296;2023-07-22T14:29:00;56.90;11.20
51811;DHT22;52468;40.116;18.296;2023-07-22T14:31:28;56.90;11.30
51811;DHT22;52468;40.116;18.296;2023-07-22T14:33:56;56.80;11.60
51811;DHT22;52468;40.116;18.296;2023-07-22T14:36:24;56.90;11.70
51811;DHT22;52468;40.116;18.296;2023-07-22T14:38:52;57.00;11.80
51811;DHT22;52468;40.116;18.296;2023-07-22T14:41:19;56.50;11.60
51811;DHT22;52468;40.116;18.296;2023-07-22T14:43:47;56.10;11.70
51811;DHT22;52468;40.116;18.296;2023-07-22T14:46:15;55.80;11.40
51811;DHT22;52468;40.116;18.296;2023-07-22T14:48:43;55.20;11.60
51811;DHT22;52468;40.116;18.296;2023-07-22T14:51:13;55.40;11.90
51811;DHT22;52468;40.116;18.296;2023-07-22T14:53:40;55.50;11.60
51811;DHT22;52468;40.116;18.296;2023-07-22T14:56:08;55.50;11.80
51811;DHT22;52468;40.116;18.296;2023-07-22T14:58:36;55.40;12.00
51811;DHT22;52468;40.116;18.296;2023-07-22T15:01:04;55.30;12.00
51811;DHT22;52468;40.116;18.296;2023-07-22T15:03:32;55.50;12.00
51811;DHT22;52468;40.116;18.296;2023-07-22T15:06:00;55.60;12.00
51811;DHT22;52468;40.116;18.296;2023-07-22T15:08:28;55.70;11.70
51811;DHT22;52468;40.116;18.296;2023-07-22T15:10:55;55.60;12.10
51811;DHT22;52468;40.116;18.296;2023-07-22T15:13:24;55.50;12.40
51811;DHT22;52468;40.116;18.296;2023-07-22T15:15:55;55.40;12.20
51811;DHT22;52468;40.116;18.296;2023-07-22T15:18:24;54.90;12.40
51811;DHT22;52468;40.116;18.296;2023-07-22T15:20:51;54.70;12.50
51811;DHT22;52468;40.116;18.296;2023-07-22T15:23:20;54.60;12.50
51811;DHT22;52468;40.116;18.296;2023-07-22T15:25:49;54.10;12.70